Time;durP1;ratioP1;P1;durP2;ratioP2;P2;SDS_P1;SDS_P2;PMS_P1;PMS_P2;Temp;Humidity;BMP_temperature;BMP_pressure;BME280_temperature;BME280_humidity;BME280_pressure;Samples;Min_cycle;Max_cycle;Signal;HPM_P1;HPM_P2
2022/09/30 00:01:39;;;;;;;18.08;11.82;;;;;;;18.29;100.00;100608.88;5003064;28;20042;-50
2022/09/30 00:04:05;;;;;;;19.73;11.30;;;;;;;18.11;100.00;100600.00;5003298;28;20043;-50
2022/09/30 00:06:34;;;;;;;19.33;11.15;;;;;;;18.22;100.00;100603.66;5000803;28;20078;-48
2022/09/30 00:09:01;;;;;;;22.65;11.60;;;;;;;18.05;100.00;100609.13;4991122;28;20114;-53
2022/09/30 00:11:33;;;;;;;17.33;10.38;;;;;;;17.82;100.00;100610.97;5001507;28;20496;-54
2022/09/30 00:14:00;;;;;;;19.13;10.68;;;;;;;18.07;100.00;100607.00;4998524;28;20031;-54
2022/09/30 00:16:29;;;;;;;19.37;11.97;;;;;;;18.02;100.00;100607.75;4996452;28;20048;-53
2022/09/30 00:18:56;;;;;;;17.73;10.75;;;;;;;18.30;100.00;100611.31;4996891;28;20038;-50
2022/09/30 00:21:22;;;;;;;19.80;12.18;;;;;;;17.95;100.00;100612.50;5000391;28;20050;-51
2022/09/30 00:23:48;;;;;;;22.10;11.30;;;;;;;17.67;100.00;100602.66;5013024;28;20039;-48
2022/09/30 00:26:17;;;;;;;22.80;11.93;;;;;;;17.80;100.00;100615.81;4992430;28;20085;-48
2022/09/30 00:28:43;;;;;;;20.83;11.40;;;;;;;17.98;100.00;100611.16;5002782;28;20034;-48
2022/09/30 00:31:12;;;;;;;24.55;11.73;;;;;;;18.06;100.00;100613.47;5023187;28;20105;-49
2022/09/30 00:33:39;;;;;;;25.83;12.18;;;;;;;18.09;100.00;100602.16;5013287;28;20027;-51
2022/09/30 00:36:05;;;;;;;21.75;12.23;;;;;;;17.97;100.00;100610.38;5010030;28;20042;-53
2022/09/30 00:38:31;;;;;;;26.77;12.45;;;;;;;17.86;100.00;100605.88;4986963;28;20031;-53
2022/09/30 00:41:00;;;;;;;20.63;12.02;;;;;;;17.68;100.00;100609.69;4998583;28;20094;-52
2022/09/30 00:43:45;;;;;;;18.48;12.32;;;;;;;17.71;100.00;100610.03;5004178;28;20027;-48
2022/09/30 00:46:17;;;;;;;25.13;12.18;;;;;;;17.86;100.00;100611.28;5002811;28;20106;-53
2022/09/30 00:48:44;;;;;;;23.50;13.45;;;;;;;17.58;100.00;100610.34;4990601;28;20033;-48
2022/09/30 00:51:09;;;;;;;19.80;12.32;;;;;;;17.59;100.00;100612.81;4993628;28;20058;-50
2022/09/30 00:53:43;;;;;;;21.37;12.20;;;;;;;17.11;100.00;100612.34;5017041;28;20059;-51
2022/09/30 00:56:15;;;;;;;21.15;12.40;;;;;;;16.95;100.00;100607.69;4992408;28;20272;-51
2022/09/30 00:58:47;;;;;;;22.33;13.63;;;;;;;17.46;100.00;100607.75;4992165;28;20054;-49
2022/09/30 01:01:13;;;;;;;21.73;12.98;;;;;;;17.55;100.00;100616.25;4988284;28;20042;-53
2022/09/30 01:03:49;;;;;;;26.95;12.45;;;;;;;17.60;100.00;100619.88;4992314;28;20031;-48
2022/09/30 01:06:16;;;;;;;19.98;11.88;;;;;;;17.43;100.00;100619.06;5016966;28;20124;-50
2022/09/30 01:08:42;;;;;;;22.20;12.15;;;;;;;17.10;100.00;100610.69;5010221;28;20034;-53
2022/09/30 01:11:09;;;;;;;24.52;12.13;;;;;;;17.30;100.00;100618.34;4993506;28;20027;-50
2022/09/30 01:13:38;;;;;;;20.23;11.20;;;;;;;17.29;100.00;100619.38;4978359;28;20100;-51
2022/09/30 01:16:16;;;;;;;18.33;10.02;;;;;;;17.13;100.00;100612.09;4993304;28;20064;-52
2022/09/30 01:19:00;;;;;;;19.58;10.43;;;;;;;17.28;100.00;100617.75;4991457;28;20050;-52
2022/09/30 01:21:56;;;;;;;19.60;10.73;;;;;;;17.37;100.00;100615.44;5012257;28;20058;-51
2022/09/30 01:25:00;;;;;;;17.33;10.43;;;;;;;17.41;100.00;100618.50;5001133;28;20046;-48
2022/09/30 01:27:49;;;;;;;19.60;10.73;;;;;;;17.47;100.00;100609.38;5012331;28;20065;-48
2022/09/30 01:30:51;;;;;;;14.55;8.63;;;;;;;17.46;100.00;100623.97;4977888;28;20071;-48
2022/09/30 01:33:23;;;;;;;13.88;8.70;;;;;;;17.61;100.00;100616.09;4931220;28;20036;-47
2022/09/30 01:36:13;;;;;;;16.83;9.00;;;;;;;17.57;100.00;100614.97;4992661;28;20046;-48
2022/09/30 01:38:50;;;;;;;18.23;8.57;;;;;;;17.60;100.00;100619.88;4987605;28;20034;-51
2022/09/30 01:41:46;;;;;;;17.13;9.02;;;;;;;17.63;100.00;100619.38;5002175;28;20045;-50
2022/09/30 01:44:16;;;;;;;12.50;8.20;;;;;;;17.63;100.00;100623.94;4984741;28;20073;-52
2022/09/30 01:46:50;;;;;;;25.08;9.15;;;;;;;17.82;100.00;100627.22;5001786;28;20038;-49
2022/09/30 01:49:39;;;;;;;21.50;9.02;;;;;;;17.91;100.00;100631.09;4995268;28;20088;-50
2022/09/30 01:52:28;;;;;;;27.95;8.32;;;;;;;17.54;100.00;100615.47;4997431;28;20045;-54
2022/09/30 01:55:08;;;;;;;56.08;9.70;;;;;;;17.34;100.00;100614.06;5002053;28;20054;-50
2022/09/30 01:58:00;;;;;;;37.40;8.18;;;;;;;17.52;100.00;100620.28;4991417;28;20051;-49
2022/09/30 02:00:26;;;;;;;111.43;12.02;;;;;;;17.63;100.00;100621.25;4989852;28;20061;-50
2022/09/30 02:03:04;;;;;;;40.22;7.53;;;;;;;18.04;100.00;100623.75;4994749;28;20106;-52
2022/09/30 02:05:47;;;;;;;41.30;7.90;;;;;;;17.77;100.00;100622.53;4995854;28;20038;-47
2022/09/30 02:08:26;;;;;;;19.17;6.97;;;;;;;17.73;100.00;100625.97;5028751;28;20046;-48
2022/09/30 02:10:58;;;;;;;30.58;7.57;;;;;;;17.92;100.00;100621.13;4996981;28;20038;-51
2022/09/30 02:13:30;;;;;;;60.03;8.65;;;;;;;18.08;100.00;100621.34;4997569;28;20032;-52
2022/09/30 02:16:01;;;;;;;322.85;18.27;;;;;;;18.01;100.00;100621.50;5001405;28;20045;-50
2022/09/30 02:18:57;;;;;;;137.73;13.07;;;;;;;18.05;100.00;100619.97;4994783;28;20031;-53
2022/09/30 02:21:29;;;;;;;41.08;7.88;;;;;;;18.20;100.00;100617.44;5008902;28;20059;-49
2022/09/30 02:24:04;;;;;;;39.58;10.02;;;;;;;18.29;100.00;100625.13;5002553;28;20109;-52
2022/09/30 02:26:36;;;;;;;33.75;9.02;;;;;;;18.33;100.00;100623.53;5000690;28;20043;-51
2022/09/30 02:29:26;;;;;;;79.00;11.75;;;;;;;18.12;100.00;100626.00;4992884;28;20030;-51
2022/09/30 02:31:57;;;;;;;162.18;20.88;;;;;;;17.75;100.00;100621.13;4992207;28;20094;-52
2022/09/30 02:34:44;;;;;;;114.95;14.93;;;;;;;17.91;100.00;100625.69;5002466;28;20035;-49
2022/09/30 02:37:17;;;;;;;14.10;7.78;;;;;;;17.65;100.00;100626.41;5006638;28;20035;-54
2022/09/30 02:40:04;;;;;;;12.35;7.88;;;;;;;17.49;100.00;100626.19;5009376;28;20038;-50
2022/09/30 02:42:30;;;;;;;11.40;7.75;;;;;;;17.86;100.00;100625.63;4992757;28;20114;-50
2022/09/30 02:45:03;;;;;;;9.35;6.70;;;;;;;17.82;100.00;100624.50;5010195;28;20040;-49
2022/09/30 02:48:07;;;;;;;8.48;6.65;;;;;;;17.77;100.00;100625.25;4994372;28;20062;-54
2022/09/30 02:50:53;;;;;;;9.18;6.80;;;;;;;17.60;100.00;100622.56;4996203;28;20120;-48
2022/09/30 02:53:55;;;;;;;9.35;6.70;;;;;;;17.23;100.00;100622.28;4996258;28;20059;-50
2022/09/30 02:56:37;;;;;;;10.85;7.43;;;;;;;17.13;100.00;100629.13;5004337;28;20035;-49
2022/09/30 02:59:03;;;;;;;13.98;7.85;;;;;;;17.24;100.00;100622.00;5002641;28;20043;-49
2022/09/30 03:01:29;;;;;;;18.05;9.38;;;;;;;17.24;100.00;100627.41;5002373;28;20042;-50
2022/09/30 03:03:59;;;;;;;14.45;9.20;;;;;;;17.10;100.00;100620.72;4994109;28;20050;-52
2022/09/30 03:06:26;;;;;;;13.43;7.53;;;;;;;16.97;100.00;100614.50;5002298;28;20026;-50
2022/09/30 03:08:52;;;;;;;14.88;8.82;;;;;;;17.25;100.00;100622.84;4991332;28;20046;-52
2022/09/30 03:11:22;;;;;;;14.77;8.57;;;;;;;17.22;100.00;100623.34;4993841;28;20027;-53
2022/09/30 03:14:22;;;;;;;14.10;9.43;;;;;;;17.09;100.00;100627.19;4993641;28;20065;-53
2022/09/30 03:17:08;;;;;;;15.18;9.90;;;;;;;17.52;100.00;100636.50;4993529;28;20027;-52
2022/09/30 03:19:41;;;;;;;12.80;8.32;;;;;;;17.33;100.00;100638.63;4992644;28;20035;-54
2022/09/30 03:22:37;;;;;;;16.52;8.60;;;;;;;17.74;100.00;100643.84;4993680;28;20035;-54
2022/09/30 03:25:33;;;;;;;13.32;7.63;;;;;;;18.28;100.00;100640.53;5013978;28;20051;-51
2022/09/30 03:28:16;;;;;;;25.90;9.07;;;;;;;18.11;100.00;100634.38;4988951;28;20058;-49
2022/09/30 03:30:56;;;;;;;27.30;8.85;;;;;;;18.41;100.00;100639.34;5023864;28;20041;-48
2022/09/30 03:33:30;;;;;;;30.52;9.75;;;;;;;17.31;100.00;100649.72;4993546;28;20035;-54
2022/09/30 03:36:11;;;;;;;21.85;8.82;;;;;;;17.24;100.00;100656.34;4993498;28;20046;-51
2022/09/30 03:38:49;;;;;;;23.25;8.05;;;;;;;18.08;100.00;100651.94;5016286;28;20049;-52
2022/09/30 03:41:58;;;;;;;15.93;8.13;;;;;;;17.11;100.00;100660.16;4999823;28;20064;-49
2022/09/30 03:44:34;;;;;;;29.63;8.50;;;;;;;18.11;100.00;100667.66;4990788;28;20038;-52
2022/09/30 03:47:05;;;;;;;26.08;8.63;;;;;;;18.91;100.00;100664.53;5006490;28;20062;-54
2022/09/30 03:49:38;;;;;;;13.77;8.65;;;;;;;19.19;100.00;100676.19;4992198;28;20098;-53
2022/09/30 03:52:06;;;;;;;19.98;7.57;;;;;;;18.16;100.00;100675.03;5015643;28;20037;-52
2022/09/30 03:54:33;;;;;;;19.45;8.35;;;;;;;17.16;100.00;100676.47;4999411;28;20046;-51
2022/09/30 03:57:02;;;;;;;26.70;9.52;;;;;;;16.63;100.00;100681.94;4990707;28;20049;-51
2022/09/30 03:59:28;;;;;;;20.48;9.00;;;;;;;16.74;100.00;100678.38;4993283;28;20065;-52
2022/09/30 04:01:56;;;;;;;25.02;8.27;;;;;;;17.29;100.00;100684.25;5006941;28;20031;-50
2022/09/30 04:04:22;;;;;;;13.05;7.85;;;;;;;18.73;100.00;100692.78;4993799;28;20118;-50
2022/09/30 04:06:48;;;;;;;11.75;6.78;;;;;;;17.23;100.00;100695.22;4993064;28;20046;-51
2022/09/30 04:09:14;;;;;;;11.13;8.23;;;;;;;16.81;100.00;100696.31;4995630;28;20038;-48
2022/09/30 04:11:39;;;;;;;12.40;7.87;;;;;;;18.71;100.00;100710.34;5017025;28;20082;-48
2022/09/30 04:14:05;;;;;;;12.93;9.17;;;;;;;18.78;100.00;100703.66;5008274;28;20269;-51
2022/09/30 04:16:31;;;;;;;14.68;8.40;;;;;;;18.13;100.00;100711.53;4999228;28;20054;-48
2022/09/30 04:18:58;;;;;;;13.60;8.80;;;;;;;18.42;100.00;100702.44;4995900;28;20109;-48
2022/09/30 04:21:24;;;;;;;12.45;8.80;;;;;;;18.81;100.00;100706.94;4992514;28;20098;-54
2022/09/30 04:23:50;;;;;;;22.20;9.75;;;;;;;19.04;100.00;100709.38;5000568;28;20033;-53
2022/09/30 04:26:18;;;;;;;32.60;10.30;;;;;;;18.52;100.00;100701.75;5000036;28;20060;-50
2022/09/30 04:28:44;;;;;;;27.13;10.30;;;;;;;18.46;100.00;100704.41;4996130;28;20308;-50
2022/09/30 04:31:11;;;;;;;49.73;11.57;;;;;;;16.73;100.00;100698.34;4999634;28;20035;-51
2022/09/30 04:33:37;;;;;;;14.90;9.20;;;;;;;16.41;100.00;100704.19;4993338;28;20030;-50
2022/09/30 04:36:02;;;;;;;23.05;10.07;;;;;;;16.32;100.00;100692.09;4992777;28;20050;-49
2022/09/30 04:38:28;;;;;;;14.18;9.57;;;;;;;15.88;100.00;100696.00;4999549;28;20025;-50
2022/09/30 04:40:54;;;;;;;46.85;10.27;;;;;;;16.18;100.00;100711.25;4999856;28;20050;-49
2022/09/30 04:43:23;;;;;;;42.80;11.50;;;;;;;16.37;100.00;100707.59;5007947;28;20061;-51
2022/09/30 04:45:51;;;;;;;47.88;11.18;;;;;;;16.60;100.00;100714.81;5006526;28;20513;-51
2022/09/30 04:48:17;;;;;;;68.50;13.13;;;;;;;21.35;100.00;100726.44;4997831;28;20031;-54
2022/09/30 04:50:43;;;;;;;130.30;17.23;;;;;;;16.81;100.00;100715.22;4994240;28;20080;-52
2022/09/30 04:53:13;;;;;;;124.67;13.80;;;;;;;16.66;100.00;100718.44;4999895;28;20062;-51
2022/09/30 04:55:40;;;;;;;142.70;15.95;;;;;;;16.80;100.00;100729.78;5002420;28;20027;-52
2022/09/30 04:58:06;;;;;;;102.13;15.65;;;;;;;16.65;100.00;100728.44;4999222;28;20046;-52
2022/09/30 05:00:31;;;;;;;237.93;18.67;;;;;;;18.06;100.00;100729.84;4998293;28;20049;-53
2022/09/30 05:02:57;;;;;;;199.10;18.33;;;;;;;17.48;100.00;100727.25;4999503;28;20031;-52
2022/09/30 05:05:22;;;;;;;75.17;12.40;;;;;;;17.60;100.00;100721.78;4997437;28;20276;-51
2022/09/30 05:07:48;;;;;;;186.20;17.15;;;;;;;16.94;100.00;100720.34;4991401;28;20054;-52
2022/09/30 05:10:15;;;;;;;97.80;12.83;;;;;;;17.10;100.00;100723.38;5014943;28;20106;-51
2022/09/30 05:12:41;;;;;;;46.95;9.77;;;;;;;17.13;100.00;100718.28;4996599;28;20040;-51
2022/09/30 05:15:07;;;;;;;22.77;9.02;;;;;;;17.03;100.00;100718.09;5009218;28;20061;-51
2022/09/30 05:17:33;;;;;;;20.13;8.82;;;;;;;17.01;100.00;100726.44;4986659;28;20039;-52
2022/09/30 05:19:59;;;;;;;19.48;9.20;;;;;;;16.92;100.00;100730.56;5014011;28;20054;-49
2022/09/30 05:22:26;;;;;;;12.77;8.32;;;;;;;16.90;100.00;100735.41;4990076;28;20039;-49
2022/09/30 05:24:54;;;;;;;23.48;8.57;;;;;;;17.24;100.00;100730.09;4999425;28;20045;-51
2022/09/30 05:27:23;;;;;;;12.90;7.85;;;;;;;16.85;100.00;100738.81;5002014;28;20039;-51
2022/09/30 05:29:48;;;;;;;15.45;9.05;;;;;;;16.83;100.00;100740.94;4990644;28;20035;-52
2022/09/30 05:32:14;;;;;;;14.07;8.87;;;;;;;16.86;100.00;100743.16;4988652;28;20039;-52
2022/09/30 05:34:40;;;;;;;20.95;9.07;;;;;;;17.01;100.00;100755.34;5001153;28;20049;-51
2022/09/30 05:37:05;;;;;;;14.43;10.03;;;;;;;17.26;100.00;100754.19;5009734;28;20051;-51
2022/09/30 05:39:31;;;;;;;25.30;13.50;;;;;;;16.88;100.00;100753.72;4999356;28;20276;-53
2022/09/30 05:41:57;;;;;;;147.55;16.90;;;;;;;17.17;100.00;100762.66;5010198;28;20045;-51
2022/09/30 05:44:24;;;;;;;59.55;15.35;;;;;;;17.17;100.00;100770.78;4998602;28;20035;-50
2022/09/30 05:46:50;;;;;;;35.10;12.90;;;;;;;17.19;100.00;100771.38;4990754;28;20102;-53
2022/09/30 05:49:16;;;;;;;23.08;12.25;;;;;;;16.77;100.00;100775.09;4994475;28;20039;-49
2022/09/30 05:51:41;;;;;;;19.93;11.80;;;;;;;16.68;100.00;100779.25;4955936;28;1023089;-52
2022/09/30 05:54:09;;;;;;;23.17;12.75;;;;;;;16.59;100.00;100780.66;5001775;28;20318;-49
2022/09/30 05:56:34;;;;;;;28.13;13.13;;;;;;;17.01;100.00;100777.78;4999517;28;20073;-51
2022/09/30 05:59:00;;;;;;;24.27;12.70;;;;;;;18.71;100.00;100787.03;4990821;28;20039;-54
2022/09/30 06:01:26;;;;;;;33.17;13.88;;;;;;;17.27;100.00;100789.06;4991316;28;20035;-51
2022/09/30 06:03:52;;;;;;;20.43;12.57;;;;;;;18.72;100.00;100785.97;5008820;28;20032;-52
2022/09/30 06:06:20;;;;;;;26.83;13.63;;;;;;;17.14;100.00;100786.66;5000179;28;20094;-52
2022/09/30 06:08:46;;;;;;;22.75;13.38;;;;;;;17.02;100.00;100792.91;5001523;28;20272;-53
2022/09/30 06:11:16;;;;;;;26.40;13.60;;;;;;;17.06;100.00;100785.97;5012225;28;20039;-49
2022/09/30 06:13:43;;;;;;;19.58;12.60;;;;;;;17.11;100.00;100789.84;5001845;28;20031;-51
2022/09/30 06:16:11;;;;;;;19.40;12.32;;;;;;;17.09;100.00;100789.28;4991267;28;20098;-52
2022/09/30 06:18:40;;;;;;;23.17;13.70;;;;;;;17.09;100.00;100789.28;5008812;28;20031;-54
2022/09/30 06:21:07;;;;;;;20.95;13.88;;;;;;;16.76;100.00;100789.66;5001360;28;20106;-53
2022/09/30 06:23:34;;;;;;;21.35;13.85;;;;;;;16.63;100.00;100792.66;5011754;28;20039;-51
2022/09/30 06:26:00;;;;;;;19.88;13.35;;;;;;;16.62;100.00;100785.59;4988874;28;20035;-50
2022/09/30 06:28:26;;;;;;;26.85;13.57;;;;;;;16.64;100.00;100791.59;5001254;28;20101;-49
2022/09/30 06:30:53;;;;;;;26.75;14.13;;;;;;;16.54;100.00;100792.19;4994968;28;20042;-52
2022/09/30 06:33:20;;;;;;;27.50;14.27;;;;;;;16.26;100.00;100791.03;4998403;28;20026;-53
2022/09/30 06:35:46;;;;;;;61.50;15.95;;;;;;;16.57;100.00;100796.28;4989052;28;20034;-52
2022/09/30 06:38:14;;;;;;;37.92;15.70;;;;;;;16.24;100.00;100798.50;5020775;28;20029;-49
2022/09/30 06:40:42;;;;;;;42.30;15.93;;;;;;;15.84;100.00;100793.78;4990097;28;20031;-53
2022/09/30 06:43:07;;;;;;;25.30;15.00;;;;;;;15.12;100.00;100790.00;5004081;28;20039;-54
2022/09/30 06:45:34;;;;;;;25.60;16.58;;;;;;;15.76;100.00;100797.63;5005123;28;20100;-55
2022/09/30 06:48:01;;;;;;;;;;;;;;;15.25;100.00;100784.47;5001641;28;20102;-51
2022/09/30 06:50:28;;;;;;;29.25;17.38;;;;;;;15.11;100.00;100791.91;4991517;28;19925;-53
2022/09/30 06:52:58;;;;;;;33.17;18.07;;;;;;;15.44;100.00;100795.16;4993118;28;20047;-53
2022/09/30 06:55:25;;;;;;;34.55;19.52;;;;;;;15.45;100.00;100797.66;5000472;28;20272;-54
2022/09/30 06:57:51;;;;;;;33.58;18.10;;;;;;;15.56;100.00;100801.44;5012976;28;20064;-54
2022/09/30 07:00:17;;;;;;;38.05;20.00;;;;;;;15.60;100.00;100799.09;5010743;28;20047;-51
2022/09/30 07:02:43;;;;;;;37.90;20.92;;;;;;;15.54;100.00;100797.31;5004261;28;20031;-48
2022/09/30 07:05:08;;;;;;;37.63;21.10;;;;;;;15.44;100.00;100800.56;5004127;28;20027;-55
2022/09/30 07:07:35;;;;;;;41.37;22.53;;;;;;;15.53;100.00;100804.59;4994992;28;20039;-54
2022/09/30 07:10:02;;;;;;;43.47;23.60;;;;;;;15.78;100.00;100800.91;5002567;28;20269;-56
2022/09/30 07:12:29;;;;;;;39.05;22.35;;;;;;;15.84;100.00;100799.16;5013734;28;20036;-54
2022/09/30 07:14:55;;;;;;;39.58;22.63;;;;;;;15.82;100.00;100802.06;5004090;28;20034;-56
2022/09/30 07:17:21;;;;;;;40.67;22.17;;;;;;;15.80;100.00;100798.78;4993552;28;20041;-55
2022/09/30 07:19:46;;;;;;;44.70;23.02;;;;;;;16.12;100.00;100805.78;5014279;28;20041;-55
2022/09/30 07:22:33;;;;;;;38.17;22.50;;;;;;;15.90;100.00;100812.53;5011673;28;20046;-52
2022/09/30 07:25:00;;;;;;;41.55;23.33;;;;;;;16.48;100.00;100815.53;4993773;28;20030;-52
2022/09/30 07:27:27;;;;;;;39.63;22.42;;;;;;;16.24;100.00;100811.19;4991256;28;20070;-50
2022/09/30 07:29:53;;;;;;;47.55;24.25;;;;;;;16.23;100.00;100813.06;4997763;28;20041;-52
2022/09/30 07:32:20;;;;;;;42.37;22.93;;;;;;;16.67;100.00;100807.31;5001114;28;20031;-52
2022/09/30 07:34:46;;;;;;;37.03;23.23;;;;;;;16.63;100.00;100806.94;5001128;28;20051;-54
2022/09/30 07:37:17;;;;;;;45.85;25.13;;;;;;;16.52;100.00;100804.25;5001292;28;20050;-49
2022/09/30 07:39:45;;;;;;;44.95;25.17;;;;;;;16.63;100.00;100793.44;4999963;28;20034;-49
2022/09/30 07:42:13;;;;;;;42.78;24.30;;;;;;;16.97;100.00;100795.50;5000798;28;20068;-51
2022/09/30 07:44:43;;;;;;;47.65;26.05;;;;;;;16.72;100.00;100796.59;4990293;28;20061;-53
2022/09/30 07:47:10;;;;;;;40.90;24.73;;;;;;;16.62;100.00;100799.09;4990943;28;20039;-51
2022/09/30 07:49:37;;;;;;;47.83;26.80;;;;;;;16.90;100.00;100786.72;5023812;28;20103;-55
2022/09/30 07:52:03;;;;;;;41.00;25.30;;;;;;;16.92;100.00;100798.09;4991632;28;20043;-53
2022/09/30 07:54:31;;;;;;;40.55;25.38;;;;;;;17.17;100.00;100791.59;5001201;28;20046;-52
2022/09/30 07:56:58;;;;;;;39.75;24.10;;;;;;;17.01;100.00;100802.09;5013443;28;20084;-51
2022/09/30 07:59:27;;;;;;;42.03;25.77;;;;;;;16.62;100.00;100797.22;4989693;28;20046;-51
2022/09/30 08:01:53;;;;;;;40.33;23.73;;;;;;;16.99;100.00;100798.00;5003226;28;20110;-52
2022/09/30 08:04:19;;;;;;;41.92;25.65;;;;;;;17.40;100.00;100789.84;4995282;28;20280;-52
2022/09/30 08:06:50;;;;;;;40.47;24.42;;;;;;;17.33;100.00;100790.81;5009853;28;20026;-50
2022/09/30 08:09:18;;;;;;;40.30;24.25;;;;;;;17.44;100.00;100791.84;4986226;28;20090;-52
2022/09/30 08:11:44;;;;;;;44.63;25.00;;;;;;;17.32;100.00;100791.06;5009297;28;20031;-47
2022/09/30 08:14:15;;;;;;;40.88;23.45;;;;;;;17.40;100.00;100787.16;5003233;28;20068;-54
2022/09/30 08:16:41;;;;;;;39.23;23.20;;;;;;;19.54;100.00;100796.06;5013562;28;20045;-51
2022/09/30 08:19:12;;;;;;;33.45;21.73;;;;;;;18.00;100.00;100795.75;5003270;28;20273;-52
2022/09/30 08:21:38;;;;;;;39.43;22.73;;;;;;;18.10;100.00;100795.91;5000915;28;20038;-50
2022/09/30 08:24:03;;;;;;;35.20;20.47;;;;;;;18.41;100.00;100796.34;4993156;28;20304;-52
2022/09/30 08:26:30;;;;;;;35.00;20.98;;;;;;;18.14;100.00;100796.25;5002710;28;20271;-52
2022/09/30 08:28:55;;;;;;;33.43;20.30;;;;;;;18.38;100.00;100793.34;5001108;28;20062;-53
2022/09/30 08:31:22;;;;;;;42.60;20.73;;;;;;;18.77;100.00;100801.44;5008007;28;20031;-53
2022/09/30 08:33:49;;;;;;;29.37;20.13;;;;;;;19.25;100.00;100804.47;4994467;28;20034;-54
2022/09/30 08:36:19;;;;;;;33.40;19.50;;;;;;;19.56;100.00;100815.63;4997632;28;20269;-52
2022/09/30 08:38:45;;;;;;;30.80;19.13;;;;;;;19.86;100.00;100814.28;5002183;28;20035;-50
2022/09/30 08:41:43;;;;;;;35.40;18.50;;;;;;;19.70;100.00;100824.16;5016696;28;20288;-53
2022/09/30 08:44:39;;;;;;;27.90;16.77;;;;;;;21.07;100.00;100831.06;4988716;28;20265;-50
2022/09/30 08:47:32;;;;;;;23.23;16.03;;;;;;;21.42;100.00;100826.00;5000636;28;20118;-54
2022/09/30 08:50:22;;;;;;;24.80;16.43;;;;;;;21.67;100.00;100832.59;4987499;28;20285;-51
2022/09/30 08:52:57;;;;;;;23.13;15.60;;;;;;;22.28;100.00;100823.59;4991224;28;20034;-52
2022/09/30 08:55:32;;;;;;;23.60;15.57;;;;;;;22.20;100.00;100818.69;5017526;28;20042;-54
2022/09/30 08:58:01;;;;;;;21.47;14.23;;;;;;;22.60;100.00;100821.63;4991234;28;20042;-53
2022/09/30 09:00:27;;;;;;;24.13;13.97;;;;;;;23.41;96.50;100834.41;5002476;28;20041;-54
2022/09/30 09:03:02;;;;;;;21.05;13.93;;;;;;;24.05;89.98;100839.97;5022573;28;20054;-54
2022/09/30 09:05:52;;;;;;;18.77;13.33;;;;;;;24.59;86.38;100845.44;4987566;28;20039;-53
2022/09/30 09:08:30;;;;;;;21.97;13.67;;;;;;;25.03;83.38;100849.06;4992488;28;20039;-54
2022/09/30 09:11:19;;;;;;;22.97;12.60;;;;;;;25.12;79.14;100852.78;5001038;28;20035;-54
2022/09/30 09:14:01;;;;;;;20.90;12.90;;;;;;;24.84;79.75;100851.75;5009795;28;20034;-52
2022/09/30 09:17:05;;;;;;;27.87;13.87;;;;;;;25.54;76.86;100861.25;4991770;28;20086;-53
2022/09/30 09:19:37;;;;;;;17.77;12.30;;;;;;;26.13;75.72;100855.38;5007808;28;20107;-55
2022/09/30 09:22:02;;;;;;;17.37;11.63;;;;;;;25.64;72.91;100857.53;4991775;28;20061;-50
2022/09/30 09:24:43;;;;;;;18.63;11.73;;;;;;;25.88;73.17;100857.44;4991885;28;20053;-57
2022/09/30 09:27:34;;;;;;;17.90;11.20;;;;;;;25.91;71.94;100856.84;5002459;28;20029;-53
2022/09/30 09:30:19;;;;;;;18.83;11.97;;;;;;;26.07;72.09;100853.84;4990428;28;20064;-51
2022/09/30 09:32:50;;;;;;;18.10;10.77;;;;;;;26.91;67.35;100853.97;5017786;28;20038;-50
2022/09/30 09:35:28;;;;;;;15.73;10.40;;;;;;;27.78;61.96;100858.66;4990034;28;20031;-50
2022/09/30 09:38:25;;;;;;;18.43;10.80;;;;;;;26.61;64.81;100850.72;4990120;28;20031;-51
2022/09/30 09:40:57;;;;;;;18.07;10.37;;;;;;;26.50;65.87;100844.59;4990577;28;20041;-52
2022/09/30 09:44:01;;;;;;;16.40;10.13;;;;;;;26.71;64.19;100835.97;5000696;28;20091;-54
2022/09/30 09:46:44;;;;;;;17.03;9.73;;;;;;;28.19;58.83;100841.16;5000039;28;20041;-54
2022/09/30 09:49:14;;;;;;;19.37;10.30;;;;;;;27.97;58.83;100841.16;4986958;28;20053;-53
2022/09/30 09:51:57;;;;;;;15.33;9.37;;;;;;;28.52;57.23;100842.75;4987048;28;20070;-53
2022/09/30 09:54:27;;;;;;;15.83;9.80;;;;;;;28.93;55.65;100851.81;5000995;28;20062;-52
2022/09/30 09:56:53;;;;;;;19.03;10.40;;;;;;;29.42;54.94;100848.16;4991443;28;20027;-51
2022/09/30 09:59:20;;;;;;;14.90;8.47;;;;;;;29.41;53.55;100854.81;4996390;28;20031;-52
2022/09/30 10:01:50;;;;;;;14.17;9.10;;;;;;;29.95;50.88;100867.38;5003761;28;20054;-53
2022/09/30 10:04:22;;;;;;;13.00;8.20;;;;;;;30.46;50.22;100854.63;4990637;28;20035;-55
2022/09/30 10:06:51;;;;;;;12.03;8.27;;;;;;;29.86;50.52;100870.97;4990062;28;20038;-54
2022/09/30 10:09:30;;;;;;;10.70;7.77;;;;;;;30.16;50.36;100857.31;5015944;28;20030;-52
2022/09/30 10:12:05;;;;;;;14.20;6.93;;;;;;;29.08;50.18;100858.78;4999190;28;20086;-55
2022/09/30 10:14:56;;;;;;;16.50;6.97;;;;;;;29.83;48.51;100870.81;4988139;28;20070;-52
2022/09/30 10:17:28;;;;;;;12.33;6.77;;;;;;;30.04;48.29;100862.72;5001411;28;20031;-53
2022/09/30 10:19:59;;;;;;;10.27;6.27;;;;;;;29.46;48.30;100857.38;5010087;28;20192;-54
2022/09/30 10:22:30;;;;;;;9.20;6.40;;;;;;;28.84;49.30;100859.25;5022591;28;20053;-54
2022/09/30 10:25:16;;;;;;;9.20;6.50;;;;;;;29.70;47.77;100873.44;4992120;28;20023;-52
2022/09/30 10:27:54;;;;;;;9.70;6.50;;;;;;;28.93;48.49;100859.22;5013611;28;20058;-56
2022/09/30 10:30:33;;;;;;;14.27;6.67;;;;;;;28.51;50.26;100859.56;5020411;28;20054;-54
2022/09/30 10:33:02;;;;;;;8.67;6.20;;;;;;;29.14;49.23;100864.97;5003272;28;20043;-55
2022/09/30 10:35:27;;;;;;;10.37;5.30;;;;;;;29.28;48.68;100862.84;5004843;28;20034;-53
2022/09/30 10:37:53;;;;;;;;;;;;;;;29.03;48.43;100862.50;5012929;28;20043;-55
2022/09/30 10:40:26;;;;;;;6.77;5.00;;;;;;;29.58;47.39;100865.81;5015420;28;19943;-52
2022/09/30 10:42:52;;;;;;;7.93;4.80;;;;;;;30.11;47.52;100864.97;5004449;28;20039;-55
2022/09/30 10:45:27;;;;;;;5.53;4.27;;;;;;;30.37;46.33;100858.56;5000810;28;20057;-52
2022/09/30 10:47:54;;;;;;;8.40;5.57;;;;;;;29.20;47.86;100855.41;4999426;28;20050;-55
2022/09/30 10:50:24;;;;;;;7.03;5.05;;;;;;;30.40;46.21;100860.66;5013011;28;20073;-53
2022/09/30 10:53:02;;;;;;;8.70;4.93;;;;;;;29.72;46.66;100871.16;5013192;28;20023;-54
2022/09/30 10:55:34;;;;;;;6.40;4.30;;;;;;;29.98;47.31;100858.47;4991855;28;20098;-52
2022/09/30 10:58:21;;;;;;;7.28;4.38;;;;;;;30.74;45.85;100853.38;4993005;28;20062;-53
2022/09/30 11:00:53;;;;;;;9.00;4.40;;;;;;;30.34;46.45;100854.50;5005833;28;20035;-53
2022/09/30 11:03:35;;;;;;;6.57;3.63;;;;;;;31.42;45.03;100851.66;5001554;28;20084;-52
2022/09/30 11:06:01;;;;;;;7.05;3.90;;;;;;;31.55;43.50;100847.78;4993223;28;20047;-54
2022/09/30 11:08:33;;;;;;;8.52;4.15;;;;;;;30.68;45.25;100844.50;5004437;28;20031;-56
2022/09/30 11:11:09;;;;;;;5.55;3.88;;;;;;;30.02;45.97;100845.69;4992781;28;20049;-53
2022/09/30 11:13:55;;;;;;;6.82;4.30;;;;;;;30.75;45.17;100850.28;5014690;28;20093;-54
2022/09/30 11:16:40;;;;;;;6.35;3.40;;;;;;;31.63;43.57;100853.59;5002535;28;20083;-50
2022/09/30 11:19:06;;;;;;;6.72;3.22;;;;;;;31.00;43.45;100844.13;4992255;28;20059;-55
2022/09/30 11:21:55;;;;;;;5.53;2.97;;;;;;;31.69;43.36;100849.47;5004327;28;20031;-55
2022/09/30 11:24:39;;;;;;;3.55;2.58;;;;;;;31.72;42.75;100849.59;5006819;28;20040;-53
2022/09/30 11:27:17;;;;;;;4.28;2.40;;;;;;;32.11;41.47;100854.09;4992583;28;20041;-52
2022/09/30 11:29:56;;;;;;;4.00;2.40;;;;;;;31.05;42.10;100844.72;4993336;28;20053;-54
2022/09/30 11:32:59;;;;;;;4.53;2.33;;;;;;;30.92;41.65;100843.06;4999224;28;20051;-52